createdAt,value
2022-08-27T04:59:46.969Z,5.62
2022-08-27T05:00:51.388Z,5.62
2022-08-27T05:01:55.898Z,5.62
2022-08-27T05:03:00.251Z,5.62
2022-08-27T05:04:04.675Z,5.62
2022-08-27T05:05:11.173Z,5.62
2022-08-27T05:06:13.458Z,5.62
2022-08-27T05:07:17.878Z,5.62
2022-08-27T05:08:22.270Z,5.62
2022-08-27T05:09:26.899Z,5.62
2022-08-27T05:10:31.058Z,5.62
2022-08-27T05:11:35.439Z,5.62
2022-08-27T05:12:39.865Z,5.62
2022-08-27T05:13:44.244Z,5.62
2022-08-27T05:14:48.641Z,5.62
2022-08-27T05:15:53.061Z,11.25
2022-08-27T05:16:57.453Z,11.25
2022-08-27T05:18:01.860Z,11.25
2022-08-27T05:19:06.240Z,11.25
2022-08-27T05:20:10.711Z,11.25
2022-08-27T05:21:15.092Z,11.25
2022-08-27T05:22:19.504Z,16.88
2022-08-27T05:23:23.891Z,16.88
2022-08-27T05:24:28.273Z,16.88
2022-08-27T05:25:32.652Z,16.88
2022-08-27T05:26:37.052Z,16.88
2022-08-27T05:27:41.478Z,22.50
2022-08-27T05:28:45.864Z,22.50
2022-08-27T05:29:50.242Z,22.50
2022-08-27T05:30:56.023Z,22.50
2022-08-27T05:31:59.026Z,16.88
2022-08-27T05:33:03.415Z,16.88
2022-08-27T05:34:10.137Z,16.88
2022-08-27T05:35:15.569Z,16.88
2022-08-27T05:36:16.585Z,16.88
2022-08-27T05:37:21.022Z,16.88
2022-08-27T05:38:25.414Z,16.88
2022-08-27T05:39:29.798Z,16.88
2022-08-27T05:40:34.227Z,16.88
2022-08-27T05:41:38.578Z,16.88
2022-08-27T05:42:42.983Z,16.88
2022-08-27T05:43:50.238Z,16.88
2022-08-27T05:44:51.804Z,16.88
2022-08-27T05:45:56.201Z,16.88
2022-08-27T05:47:00.626Z,16.88
2022-08-27T05:48:05.005Z,16.88
2022-08-27T05:49:09.416Z,16.88
2022-08-27T05:50:13.785Z,22.50
2022-08-27T05:51:25.129Z,22.50
2022-08-27T05:52:22.599Z,22.50
2022-08-27T05:55:59.998Z,28.12
2022-08-27T05:57:04.770Z,28.12
2022-08-27T05:58:09.327Z,33.75
2022-08-27T05:59:13.673Z,33.75
2022-08-27T06:00:18.109Z,33.75
2022-08-27T06:01:22.541Z,39.38
2022-08-27T06:04:30.332Z,39.38
2022-08-27T06:05:34.797Z,39.38
2022-08-27T06:06:39.213Z,39.38
2022-08-27T06:07:43.681Z,45.00
2022-08-27T06:08:48.139Z,45.00
2022-08-27T06:09:52.591Z,45.00
2022-08-27T06:10:57.290Z,50.62
2022-08-27T06:12:01.774Z,50.62
2022-08-27T06:13:08.692Z,50.62
2022-08-27T06:14:13.161Z,50.62
2022-08-27T06:15:17.902Z,50.62
2022-08-27T06:16:26.179Z,56.25
2022-08-27T06:17:34.389Z,61.88
